createdAt,value
2018-10-12T00:00:40.567Z,16.05
2018-10-12T00:03:10.260Z,16.15
2018-10-12T00:05:39.359Z,15.92
2018-10-12T00:08:08.458Z,15.80
2018-10-12T00:10:37.704Z,15.72
2018-10-12T00:13:06.817Z,15.80
2018-10-12T00:15:35.971Z,15.94
2018-10-12T00:18:05.061Z,16.04
2018-10-12T00:20:34.333Z,15.96
2018-10-12T00:23:03.476Z,15.98
2018-10-12T00:25:32.759Z,15.89
2018-10-12T00:28:01.905Z,15.99
2018-10-12T00:30:31.057Z,16.13
2018-10-12T00:33:00.184Z,16.06
2018-10-12T00:35:29.265Z,16.00
2018-10-12T00:37:58.445Z,16.01
2018-10-12T00:40:27.558Z,15.93
2018-10-12T00:42:56.706Z,15.79
2018-10-12T00:45:25.859Z,15.81
2018-10-12T00:48:00.829Z,15.70
2018-10-12T00:50:31.480Z,15.83
2018-10-12T00:53:01.176Z,16.06
2018-10-12T00:55:32.548Z,15.95
2018-10-12T00:58:01.754Z,16.02
2018-10-12T01:00:30.924Z,16.02
2018-10-12T01:03:00.132Z,16.14
2018-10-12T01:05:29.242Z,15.94
2018-10-12T01:07:58.432Z,15.87
2018-10-12T01:10:27.523Z,15.90
2018-10-12T01:12:56.635Z,15.94
2018-10-12T01:15:25.797Z,16.04
2018-10-12T01:17:54.981Z,15.94
2018-10-12T01:20:24.109Z,15.69
2018-10-12T01:22:53.278Z,15.69
2018-10-12T01:25:22.412Z,15.90
2018-10-12T01:27:51.510Z,15.90
2018-10-12T01:30:20.685Z,16.05
2018-10-12T01:32:55.171Z,16.15
2018-10-12T01:35:24.299Z,16.24
2018-10-12T01:37:53.380Z,16.24
2018-10-12T01:40:22.539Z,16.28
2018-10-12T01:42:51.939Z,16.25
2018-10-12T01:45:21.099Z,16.20
2018-10-12T01:47:50.273Z,16.19
2018-10-12T01:50:19.391Z,16.14
2018-10-12T01:52:48.479Z,16.13
2018-10-12T01:55:17.691Z,16.16
2018-10-12T01:57:46.799Z,16.10
2018-10-12T02:00:15.995Z,16.11
2018-10-12T02:02:45.097Z,16.07
2018-10-12T02:05:14.302Z,16.11
2018-10-12T02:07:43.431Z,16.12
2018-10-12T02:10:12.620Z,16.08
2018-10-12T02:12:41.709Z,16.18
2018-10-12T02:15:10.858Z,16.22
2018-10-12T02:17:39.949Z,16.29
2018-10-12T02:20:09.273Z,16.31
2018-10-12T02:22:38.421Z,16.36
2018-10-12T02:25:07.908Z,16.40
2018-10-12T02:27:37.044Z,16.45
2018-10-12T02:30:07.114Z,16.51
2018-10-12T02:32:36.276Z,16.51
2018-10-12T02:35:05.577Z,16.58
2018-10-12T02:37:34.735Z,16.52
2018-10-12T02:40:03.823Z,16.53
2018-10-12T02:42:32.946Z,16.44
2018-10-12T02:45:02.042Z,16.34
2018-10-12T02:47:31.180Z,16.49
2018-10-12T02:50:00.279Z,16.63
2018-10-12T02:52:29.420Z,16.60
2018-10-12T02:54:58.572Z,16.60
2018-10-12T02:57:27.773Z,16.59
2018-10-12T02:59:56.920Z,16.60
2018-10-12T03:02:26.011Z,16.60
2018-10-12T03:04:55.192Z,16.61
2018-10-12T03:07:24.340Z,16.58
2018-10-12T03:09:53.484Z,16.49
2018-10-12T03:12:22.592Z,16.50
2018-10-12T03:14:51.680Z,16.48
2018-10-12T03:17:20.865Z,16.33
2018-10-12T03:19:49.925Z,16.45
2018-10-12T03:22:20.165Z,16.50
2018-10-12T03:24:49.364Z,16.49
2018-10-12T03:27:18.527Z,16.44
2018-10-12T03:29:47.849Z,16.41
2018-10-12T03:32:17.011Z,16.41
2018-10-12T03:34:46.145Z,16.37
2018-10-12T03:37:15.386Z,16.26
2018-10-12T03:39:44.489Z,16.23
2018-10-12T03:42:13.589Z,16.19
2018-10-12T03:44:42.728Z,16.17
2018-10-12T03:47:11.889Z,16.11
2018-10-12T03:49:41.037Z,15.96
2018-10-12T03:52:11.063Z,15.78
2018-10-12T03:54:40.293Z,15.69
2018-10-12T03:57:09.484Z,15.53
2018-10-12T03:59:38.580Z,15.33
2018-10-12T04:02:07.680Z,15.29
2018-10-12T04:04:36.784Z,15.13
2018-10-12T04:07:05.968Z,15.14
2018-10-12T04:09:35.064Z,14.91
2018-10-12T04:12:04.204Z,14.82
2018-10-12T04:14:33.301Z,14.78
2018-10-12T04:17:02.465Z,14.78
2018-10-12T04:19:31.602Z,14.48
2018-10-12T04:22:00.761Z,14.53
2018-10-12T04:24:29.874Z,14.39
2018-10-12T04:26:59.044Z,14.47
2018-10-12T04:29:28.163Z,14.43
2018-10-12T04:31:57.341Z,14.22
2018-10-12T04:34:26.423Z,14.35
2018-10-12T04:36:55.652Z,14.28
2018-10-12T04:39:39.789Z,14.29
2018-10-12T04:42:09.101Z,14.09
2018-10-12T04:44:38.209Z,14.02
2018-10-12T04:47:07.672Z,13.91
2018-10-12T04:49:36.789Z,13.82
2018-10-12T04:52:05.972Z,13.74
2018-10-12T04:54:35.128Z,13.81
2018-10-12T04:57:04.204Z,13.72
2018-10-12T04:59:33.328Z,13.59
2018-10-12T05:02:02.481Z,13.57
2018-10-12T05:04:31.586Z,13.55
2018-10-12T05:07:00.760Z,13.56
2018-10-12T05:09:29.896Z,13.44
2018-10-12T05:11:59.044Z,13.36
2018-10-12T05:14:28.200Z,13.35
2018-10-12T05:16:57.340Z,13.41
2018-10-12T05:19:26.504Z,13.41
2018-10-12T05:21:55.717Z,13.41
2018-10-12T05:24:24.838Z,13.36
2018-10-12T05:26:54.034Z,13.34
2018-10-12T05:29:23.169Z,13.34
2018-10-12T05:31:52.385Z,13.71
2018-10-12T05:34:21.487Z,13.73
2018-10-12T05:36:50.642Z,13.68
2018-10-12T05:39:19.763Z,13.51
2018-10-12T05:41:48.953Z,13.58
2018-10-12T05:44:18.080Z,13.57
2018-10-12T05:46:47.197Z,13.72
2018-10-12T05:49:27.538Z,13.93
2018-10-12T05:51:56.664Z,13.66
2018-10-12T05:54:25.801Z,13.65
2018-10-12T05:56:55.106Z,13.72
2018-10-12T05:59:24.480Z,13.78
2018-10-12T06:01:53.656Z,13.75
2018-10-12T06:04:22.771Z,13.64
2018-10-12T06:06:51.928Z,13.73
2018-10-12T06:09:21.074Z,13.70
2018-10-12T06:11:51.291Z,13.79
2018-10-12T06:14:20.477Z,13.72
2018-10-12T06:16:49.646Z,13.84
2018-10-12T06:19:18.830Z,13.98
2018-10-12T06:21:47.928Z,13.99
2018-10-12T06:24:17.158Z,13.98
2018-10-12T06:26:46.315Z,14.07
2018-10-12T06:29:15.603Z,14.09
2018-10-12T06:31:44.701Z,14.22
2018-10-12T06:34:13.872Z,14.28
2018-10-12T06:36:43.008Z,14.23
2018-10-12T06:39:12.148Z,14.20
2018-10-12T06:41:41.393Z,14.25
2018-10-12T06:44:10.451Z,14.46
2018-10-12T06:46:39.595Z,14.56
2018-10-12T06:49:08.683Z,14.61
2018-10-12T06:51:37.810Z,14.64
2018-10-12T06:54:06.929Z,14.73
2018-10-12T06:56:36.363Z,14.82
2018-10-12T06:59:05.473Z,14.91
2018-10-12T07:01:34.627Z,15.07
2018-10-12T07:04:03.917Z,15.18
2018-10-12T07:06:33.037Z,15.30
2018-10-12T07:09:02.261Z,15.42
2018-10-12T07:11:31.368Z,15.47
2018-10-12T07:14:00.774Z,15.59
2018-10-12T07:16:29.607Z,15.66
2018-10-12T07:18:58.736Z,15.78
2018-10-12T07:21:27.926Z,15.88
2018-10-12T07:23:57.016Z,15.96
2018-10-12T07:26:26.156Z,16.22
2018-10-12T07:28:55.287Z,16.29
2018-10-12T07:31:24.463Z,16.52
2018-10-12T07:33:53.556Z,16.63
2018-10-12T07:36:22.738Z,16.76
2018-10-12T07:38:51.824Z,16.77
2018-10-12T07:41:20.931Z,16.79
2018-10-12T07:43:50.056Z,17.06
2018-10-12T07:46:19.212Z,17.01
2018-10-12T07:48:48.659Z,17.02
2018-10-12T07:51:17.862Z,17.31
2018-10-12T07:53:47.054Z,17.37
2018-10-12T07:56:16.185Z,17.49
2018-10-12T07:58:45.269Z,17.51
2018-10-12T08:01:14.352Z,17.72
2018-10-12T08:03:43.469Z,17.70
2018-10-12T08:06:12.579Z,17.83
2018-10-12T08:08:41.689Z,17.94
2018-10-12T08:11:10.801Z,17.96
2018-10-12T08:13:39.978Z,17.86
2018-10-12T08:16:09.022Z,18.07
2018-10-12T08:18:38.167Z,18.15
2018-10-12T08:21:07.633Z,18.25
2018-10-12T08:23:36.729Z,18.38
2018-10-12T08:26:05.853Z,18.41
2018-10-12T08:28:35.041Z,18.49
2018-10-12T08:31:04.148Z,18.50
2018-10-12T08:33:33.251Z,18.57
2018-10-12T08:36:02.416Z,18.75
2018-10-12T08:38:31.556Z,18.81
2018-10-12T08:41:00.685Z,18.67
2018-10-12T08:43:29.822Z,18.68
2018-10-12T08:45:58.924Z,18.77
2018-10-12T08:48:28.164Z,18.90
2018-10-12T08:50:57.268Z,19.09
2018-10-12T08:53:26.406Z,18.91
2018-10-12T08:55:55.500Z,19.02
2018-10-12T08:58:24.668Z,19.34
2018-10-12T09:00:53.872Z,19.23
2018-10-12T09:03:22.972Z,19.15
2018-10-12T09:05:52.200Z,19.15
2018-10-12T09:08:21.264Z,19.45
2018-10-12T09:10:50.386Z,19.37
2018-10-12T09:13:19.585Z,19.33
2018-10-12T09:15:48.680Z,19.51
2018-10-12T09:18:17.847Z,19.30
2018-10-12T09:20:47.037Z,19.67
2018-10-12T09:23:16.113Z,19.52
2018-10-12T09:25:45.479Z,19.64
2018-10-12T09:28:14.731Z,19.68
2018-10-12T09:30:43.865Z,19.80
2018-10-12T09:33:12.945Z,19.83
2018-10-12T09:35:42.046Z,19.86
2018-10-12T09:38:11.229Z,19.74
2018-10-12T09:40:40.760Z,19.94
2018-10-12T09:43:09.905Z,20.00
2018-10-12T09:45:39.149Z,20.15
2018-10-12T09:48:08.578Z,20.28
2018-10-12T09:50:37.745Z,20.37
2018-10-12T09:53:06.853Z,20.07
2018-10-12T09:55:35.981Z,20.25
2018-10-12T09:58:05.133Z,20.11
2018-10-12T10:00:39.554Z,20.47
2018-10-12T10:03:14.156Z,20.37
2018-10-12T10:05:43.560Z,20.55
2018-10-12T10:08:12.786Z,20.50
2018-10-12T10:10:41.792Z,20.51
2018-10-12T10:13:10.916Z,20.52
2018-10-12T10:15:40.086Z,20.61
2018-10-12T10:18:09.193Z,20.86
2018-10-12T10:20:38.523Z,20.84
2018-10-12T10:23:07.623Z,20.87
2018-10-12T10:25:36.718Z,20.86
2018-10-12T10:28:06.340Z,21.10
2018-10-12T10:30:36.000Z,21.29
2018-10-12T10:33:05.147Z,21.06
2018-10-12T10:35:34.352Z,21.33
2018-10-12T10:38:03.492Z,21.39
2018-10-12T10:40:32.611Z,21.50
2018-10-12T10:43:01.729Z,21.76
2018-10-12T10:45:30.815Z,21.72
2018-10-12T10:47:59.968Z,21.79
2018-10-12T10:50:29.105Z,21.88
2018-10-12T10:52:58.342Z,22.15
2018-10-12T10:55:27.462Z,22.07
2018-10-12T10:57:56.675Z,22.08
2018-10-12T11:00:26.076Z,22.39
2018-10-12T11:02:55.399Z,22.64
2018-10-12T11:05:24.496Z,22.56
2018-10-12T11:07:53.673Z,22.91
2018-10-12T11:10:22.757Z,23.06
2018-10-12T11:12:52.066Z,23.37
2018-10-12T11:15:21.075Z,23.74
2018-10-12T11:17:50.145Z,23.73
2018-10-12T11:20:19.264Z,23.45
2018-10-12T11:22:48.393Z,23.67
2018-10-12T11:25:17.462Z,23.93
2018-10-12T11:27:46.596Z,23.75
2018-10-12T11:30:15.860Z,23.98
2018-10-12T11:32:45.095Z,24.43
2018-10-12T11:35:14.292Z,25.29
2018-10-12T11:37:43.510Z,26.44
2018-10-12T11:40:12.578Z,26.47
2018-10-12T11:42:52.960Z,25.31
2018-10-12T11:45:22.120Z,27.66
2018-10-12T11:47:51.184Z,26.57
2018-10-12T11:50:20.269Z,27.48
2018-10-12T11:52:49.377Z,28.37
2018-10-12T11:55:18.722Z,28.89
2018-10-12T11:57:47.965Z,29.01
2018-10-12T12:00:17.279Z,30.42
2018-10-12T12:02:46.923Z,29.42
2018-10-12T12:05:16.071Z,29.79
2018-10-12T12:07:45.146Z,30.32
2018-10-12T12:10:14.316Z,30.62
2018-10-12T12:12:43.499Z,30.55
2018-10-12T12:15:12.559Z,30.77
2018-10-12T12:17:41.660Z,31.91
2018-10-12T12:20:10.857Z,32.12
2018-10-12T12:22:39.899Z,31.71
2018-10-12T12:25:08.983Z,31.81
2018-10-12T12:27:38.071Z,32.44
2018-10-12T12:30:07.305Z,32.27
2018-10-12T12:32:36.386Z,32.73
2018-10-12T12:35:05.809Z,33.52
2018-10-12T12:37:34.855Z,33.90
2018-10-12T12:40:03.952Z,34.11
2018-10-12T12:42:33.040Z,33.78
2018-10-12T12:45:02.385Z,33.40
2018-10-12T12:47:31.567Z,33.46
2018-10-12T12:50:00.756Z,34.51
2018-10-12T12:52:29.928Z,33.33
2018-10-12T12:54:59.133Z,33.56
2018-10-12T12:57:28.222Z,33.33
2018-10-12T12:59:57.336Z,34.52
2018-10-12T13:02:26.616Z,34.77
2018-10-12T13:04:55.744Z,35.24
2018-10-12T13:07:24.986Z,35.23
2018-10-12T13:09:54.116Z,35.62
2018-10-12T13:12:23.304Z,34.54
2018-10-12T13:14:52.535Z,34.93
2018-10-12T13:17:21.702Z,34.92
2018-10-12T13:19:50.808Z,34.80
2018-10-12T13:22:20.092Z,35.52
2018-10-12T13:24:49.315Z,35.46
2018-10-12T13:27:18.500Z,35.75
2018-10-12T13:29:47.708Z,35.59
2018-10-12T13:32:16.898Z,35.45
2018-10-12T13:34:46.088Z,35.57
2018-10-12T13:37:15.244Z,36.23
2018-10-12T13:39:44.555Z,36.38
2018-10-12T13:42:13.941Z,36.05
2018-10-12T13:44:43.072Z,36.27
2018-10-12T13:47:12.180Z,36.80
2018-10-12T13:49:41.657Z,36.19
2018-10-12T13:52:10.763Z,36.21
2018-10-12T13:54:39.864Z,36.73
2018-10-12T13:57:08.959Z,36.06
2018-10-12T13:59:38.038Z,35.17
2018-10-12T14:02:07.349Z,36.10
2018-10-12T14:04:36.632Z,36.87
2018-10-12T14:07:05.764Z,37.01
2018-10-12T14:09:34.840Z,37.19
2018-10-12T14:12:04.060Z,37.26
2018-10-12T14:14:33.249Z,35.95
2018-10-12T14:17:02.380Z,36.82
2018-10-12T14:19:31.576Z,36.57
2018-10-12T14:22:01.149Z,36.86
2018-10-12T14:24:30.323Z,37.23
2018-10-12T14:26:59.514Z,36.19
2018-10-12T14:29:28.674Z,36.28
2018-10-12T14:32:04.366Z,36.53
2018-10-12T14:34:33.463Z,35.65
2018-10-12T14:37:02.559Z,36.10
2018-10-12T14:39:31.805Z,36.63
2018-10-12T14:42:00.943Z,36.33
2018-10-12T14:44:30.164Z,35.97
2018-10-12T14:46:59.291Z,36.57
2018-10-12T14:49:28.465Z,36.54
2018-10-12T14:51:57.531Z,35.85
2018-10-12T14:54:26.737Z,35.33
2018-10-12T14:56:55.848Z,35.38
2018-10-12T14:59:24.979Z,35.16
2018-10-12T15:01:54.085Z,34.50
2018-10-12T15:04:23.376Z,32.30
2018-10-12T15:06:52.543Z,30.08
2018-10-12T15:09:21.780Z,29.02
2018-10-12T15:11:50.910Z,28.75
2018-10-12T15:14:33.858Z,27.58
2018-10-12T15:17:02.965Z,27.13
2018-10-12T15:19:32.152Z,26.66
2018-10-12T15:22:01.337Z,26.14
2018-10-12T15:24:30.416Z,25.97
2018-10-12T15:26:59.580Z,25.80
2018-10-12T15:29:29.056Z,25.70
2018-10-12T15:31:58.318Z,25.14
2018-10-12T15:34:27.395Z,25.23
2018-10-12T15:36:56.522Z,25.19
2018-10-12T15:39:25.607Z,25.03
2018-10-12T15:41:54.699Z,24.85
2018-10-12T15:44:24.082Z,24.67
2018-10-12T15:46:53.175Z,24.45
2018-10-12T15:49:22.364Z,24.23
2018-10-12T15:51:51.519Z,24.17
2018-10-12T15:54:20.685Z,24.05
2018-10-12T15:56:49.905Z,23.88
2018-10-12T15:59:19.089Z,23.85
2018-10-12T16:01:49.011Z,23.67
2018-10-12T16:04:18.148Z,23.61
2018-10-12T16:06:47.261Z,23.46
2018-10-12T16:09:22.636Z,23.29
2018-10-12T16:11:52.469Z,23.08
2018-10-12T16:14:21.564Z,22.83
2018-10-12T16:16:50.648Z,22.83
2018-10-12T16:19:19.784Z,22.60
2018-10-12T16:21:49.027Z,22.57
2018-10-12T16:24:18.123Z,22.57
2018-10-12T16:26:47.333Z,22.36
2018-10-12T16:29:16.536Z,22.14
2018-10-12T16:31:45.598Z,22.15
2018-10-12T16:34:14.777Z,22.08
2018-10-12T16:36:44.125Z,22.03
2018-10-12T16:39:13.281Z,21.80
2018-10-12T16:41:43.447Z,21.69
2018-10-12T16:44:12.591Z,21.63
2018-10-12T16:46:41.703Z,21.57
2018-10-12T16:49:10.848Z,21.51
2018-10-12T16:51:39.971Z,21.42
2018-10-12T16:54:09.820Z,21.55
2018-10-12T16:56:39.425Z,21.50
2018-10-12T16:59:09.157Z,21.28
2018-10-12T17:01:38.735Z,21.30
2018-10-12T17:04:08.011Z,21.27
2018-10-12T17:06:37.454Z,21.00
2018-10-12T17:09:07.467Z,20.83
2018-10-12T17:11:36.923Z,20.66
2018-10-12T17:14:06.188Z,20.54
2018-10-12T17:16:35.323Z,20.40
2018-10-12T17:19:04.642Z,20.49
2018-10-12T17:21:33.823Z,20.09
2018-10-12T17:24:03.179Z,20.24
2018-10-12T17:26:32.446Z,20.17
2018-10-12T17:29:01.990Z,20.05
2018-10-12T17:31:31.927Z,20.12
2018-10-12T17:34:01.921Z,20.07
2018-10-12T17:36:32.060Z,19.93
2018-10-12T17:39:01.550Z,19.88
2018-10-12T17:41:31.150Z,19.64
2018-10-12T17:44:01.648Z,19.34
2018-10-12T17:46:31.292Z,19.44
2018-10-12T17:49:00.519Z,19.39
2018-10-12T17:51:29.649Z,19.37
2018-10-12T17:53:58.745Z,19.31
2018-10-12T17:56:27.828Z,19.20
2018-10-12T17:58:57.025Z,19.16
2018-10-12T18:01:26.153Z,19.13
2018-10-12T18:03:55.253Z,19.09
2018-10-12T18:06:24.369Z,18.92
2018-10-12T18:08:53.554Z,18.70
2018-10-12T18:11:22.593Z,18.79
2018-10-12T18:13:51.773Z,18.75
2018-10-12T18:16:20.930Z,18.67
2018-10-12T18:18:50.091Z,18.54
2018-10-12T18:21:19.239Z,18.51
2018-10-12T18:23:48.349Z,18.28
2018-10-12T18:26:17.496Z,18.34
2018-10-12T18:28:46.620Z,18.36
2018-10-12T18:31:15.732Z,18.30
2018-10-12T18:33:44.826Z,18.06
2018-10-12T18:36:14.455Z,17.97
2018-10-12T18:38:44.234Z,17.90
2018-10-12T18:41:13.839Z,17.93
2018-10-12T18:43:43.275Z,18.05
2018-10-12T18:46:12.378Z,17.81
2018-10-12T18:48:41.506Z,17.92
2018-10-12T18:51:10.608Z,17.89
2018-10-12T18:53:39.708Z,17.63
2018-10-12T18:56:08.825Z,17.68
2018-10-12T18:58:37.958Z,17.55
2018-10-12T19:01:07.077Z,17.55
2018-10-12T19:03:36.530Z,17.47
2018-10-12T19:06:05.641Z,17.48
2018-10-12T19:08:35.015Z,17.33
2018-10-12T19:11:04.137Z,17.23
2018-10-12T19:13:33.495Z,16.99
2018-10-12T19:16:02.620Z,17.01
2018-10-12T19:18:31.718Z,17.01
2018-10-12T19:21:00.819Z,17.09
2018-10-12T19:23:34.162Z,17.00
2018-10-12T19:26:04.450Z,16.82
2018-10-12T19:28:34.184Z,17.02
2018-10-12T19:31:04.459Z,17.04
2018-10-12T19:33:33.678Z,16.84
2018-10-12T19:36:02.767Z,16.77
2018-10-12T19:38:31.985Z,16.84
2018-10-12T19:41:01.032Z,16.79
2018-10-12T19:43:30.151Z,16.86
2018-10-12T19:46:00.090Z,16.74
2018-10-12T19:48:29.225Z,16.47
2018-10-12T19:50:58.306Z,16.67
2018-10-12T19:53:27.474Z,16.64
2018-10-12T19:55:56.570Z,16.46
2018-10-12T19:58:25.898Z,16.35
2018-10-12T20:00:54.995Z,16.55
2018-10-12T20:03:24.176Z,16.39
2018-10-12T20:05:53.308Z,16.30
2018-10-12T20:08:22.405Z,16.22
2018-10-12T20:10:51.527Z,16.45
2018-10-12T20:13:20.624Z,16.21
2018-10-12T20:15:49.744Z,16.18
2018-10-12T20:18:18.841Z,16.23
2018-10-12T20:20:47.935Z,16.22
2018-10-12T20:23:17.079Z,16.14
2018-10-12T20:25:46.219Z,15.99
2018-10-12T20:28:15.309Z,16.11
2018-10-12T20:30:44.413Z,16.20
2018-10-12T20:33:13.544Z,15.84
2018-10-12T20:35:42.661Z,15.71
2018-10-12T20:38:11.799Z,15.83
2018-10-12T20:40:41.000Z,15.71
2018-10-12T20:43:10.124Z,15.76
2018-10-12T20:45:39.302Z,15.69
2018-10-12T20:48:08.478Z,15.67
2018-10-12T20:50:37.739Z,15.81
2018-10-12T20:53:07.066Z,15.88
2018-10-12T20:55:36.206Z,15.79
2018-10-12T20:58:09.041Z,15.50
2018-10-12T21:00:38.199Z,15.45
2018-10-12T21:03:07.297Z,15.59
2018-10-12T21:05:36.391Z,15.48
2018-10-12T21:08:05.552Z,15.62
2018-10-12T21:10:34.756Z,15.60
2018-10-12T21:13:03.857Z,15.54
2018-10-12T21:15:32.988Z,15.32
2018-10-12T21:18:02.157Z,15.44
2018-10-12T21:20:31.228Z,15.26
2018-10-12T21:23:00.324Z,15.21
2018-10-12T21:25:29.440Z,15.21
2018-10-12T21:27:58.524Z,15.08
2018-10-12T21:30:31.556Z,15.05
2018-10-12T21:33:00.627Z,15.01
2018-10-12T21:35:29.736Z,15.10
2018-10-12T21:37:58.828Z,14.96
2018-10-12T21:40:27.921Z,15.00
2018-10-12T21:42:57.052Z,15.14
2018-10-12T21:45:26.180Z,15.12
2018-10-12T21:47:55.503Z,15.23
2018-10-12T21:50:24.718Z,15.09
2018-10-12T21:52:53.798Z,14.88
2018-10-12T21:55:22.880Z,14.88
2018-10-12T21:57:51.996Z,14.68
2018-10-12T22:00:21.119Z,14.57
2018-10-12T22:02:50.289Z,14.67
2018-10-12T22:05:19.389Z,14.68
2018-10-12T22:07:48.464Z,14.65
2018-10-12T22:10:17.645Z,14.68
2018-10-12T22:12:46.751Z,14.48
2018-10-12T22:15:15.857Z,14.55
2018-10-12T22:17:44.964Z,14.63
2018-10-12T22:20:14.093Z,14.67
2018-10-12T22:22:43.343Z,14.37
2018-10-12T22:25:12.461Z,14.50
2018-10-12T22:27:41.560Z,14.43
2018-10-12T22:30:10.675Z,14.33
2018-10-12T22:32:39.769Z,14.45
2018-10-12T22:35:09.757Z,14.55
2018-10-12T22:37:38.861Z,14.44
2018-10-12T22:40:07.983Z,14.43
2018-10-12T22:42:37.258Z,14.38
2018-10-12T22:45:06.361Z,14.42
2018-10-12T22:47:35.461Z,14.31
2018-10-12T22:50:04.581Z,14.31
2018-10-12T22:52:33.712Z,14.34
2018-10-12T22:55:02.845Z,14.36
2018-10-12T22:57:31.946Z,14.16
2018-10-12T23:00:01.036Z,14.25
2018-10-12T23:02:30.144Z,14.12
2018-10-12T23:04:59.264Z,14.17
2018-10-12T23:07:28.358Z,13.93
2018-10-12T23:09:57.448Z,13.99
2018-10-12T23:12:26.762Z,14.11
2018-10-12T23:14:55.895Z,14.02
2018-10-12T23:17:24.988Z,13.87
2018-10-12T23:19:54.120Z,14.04
2018-10-12T23:22:23.231Z,14.08
2018-10-12T23:24:52.312Z,13.96
2018-10-12T23:27:21.424Z,13.99
2018-10-12T23:29:50.536Z,13.86
2018-10-12T23:32:19.635Z,13.92
2018-10-12T23:34:48.739Z,13.76
2018-10-12T23:37:17.815Z,13.82
2018-10-12T23:39:46.917Z,13.93
2018-10-12T23:42:16.053Z,13.95
2018-10-12T23:44:45.168Z,13.94
2018-10-12T23:47:14.347Z,13.91
2018-10-12T23:49:43.684Z,13.93
2018-10-12T23:52:12.917Z,13.91
2018-10-12T23:54:42.089Z,13.71
2018-10-12T23:57:11.206Z,13.82
2018-10-12T23:59:40.305Z,13.74
